Time;durP1;ratioP1;P1;durP2;ratioP2;P2;SDS_P1;SDS_P2;PMS_P1;PMS_P2;Temp;Humidity;BMP_temperature;BMP_pressure;BME280_temperature;BME280_humidity;BME280_pressure;Samples;Min_cycle;Max_cycle;Signal;HPM_P1;HPM_P2
2022/09/27 00:01:39;;;;;;;10.13;2.30;;;;;;;12.59;64.76;99737.44;5164550;28;20044;-46
2022/09/27 00:04:12;;;;;;;7.32;2.08;;;;;;;12.57;64.84;99743.94;5165781;28;20052;-51
2022/09/27 00:06:44;;;;;;;6.32;2.75;;;;;;;12.56;65.10;99740.47;5167842;28;20490;-49
2022/09/27 00:09:17;;;;;;;8.10;2.53;;;;;;;12.55;64.62;99732.72;5166098;28;20041;-46
2022/09/27 00:11:49;;;;;;;16.10;2.90;;;;;;;12.48;64.83;99718.59;5162537;28;20719;-48
2022/09/27 00:14:22;;;;;;;7.40;2.20;;;;;;;12.28;64.70;99708.63;5163084;28;20284;-48
2022/09/27 00:16:56;;;;;;;5.35;1.90;;;;;;;12.48;64.77;99719.44;5169353;28;20044;-51
2022/09/27 00:19:29;;;;;;;6.63;2.17;;;;;;;12.46;64.56;99724.91;5165237;28;20049;-39
2022/09/27 00:22:02;;;;;;;11.20;2.33;;;;;;;12.46;64.75;99726.72;5166108;28;20041;-48
2022/09/27 00:24:35;;;;;;;10.88;2.20;;;;;;;12.44;64.67;99734.84;5163651;28;20402;-47
2022/09/27 00:27:07;;;;;;;12.98;2.78;;;;;;;12.42;64.72;99739.53;5163296;28;20483;-47
2022/09/27 00:29:39;;;;;;;13.13;2.37;;;;;;;12.40;64.71;99744.19;5165984;28;20377;-48
2022/09/27 00:32:14;;;;;;;7.32;2.08;;;;;;;12.42;64.67;99746.66;5167856;28;20623;-49
2022/09/27 00:34:46;;;;;;;7.45;1.88;;;;;;;12.34;64.72;99734.34;5165617;28;20533;-49
2022/09/27 00:37:20;;;;;;;11.57;1.92;;;;;;;12.44;64.74;99744.63;5168602;28;20409;-49
2022/09/27 00:39:52;;;;;;;;;;;;;;;12.46;64.65;99740.78;5167500;28;20512;-50
2022/09/27 00:42:24;;;;;;;11.38;1.83;;;;;;;12.44;64.65;99740.13;5164047;28;20348;-49
2022/09/27 00:45:17;;;;;;;15.98;2.15;;;;;;;12.44;64.68;99742.78;5164971;28;20796;-50
2022/09/27 00:47:56;;;;;;;10.55;2.67;;;;;;;12.40;64.58;99744.19;5154002;28;20056;-51
2022/09/27 00:50:32;;;;;;;8.85;2.70;;;;;;;12.38;64.73;99743.53;5161326;28;20405;-48
2022/09/27 00:53:12;;;;;;;9.23;2.55;;;;;;;12.37;64.76;99736.63;5161184;28;20103;-49
2022/09/27 00:55:48;;;;;;;18.65;2.92;;;;;;;12.39;64.72;99742.56;5169887;28;20472;-47
2022/09/27 00:58:26;;;;;;;12.23;2.58;;;;;;;12.41;64.85;99745.81;5161862;28;20049;-47
2022/09/27 01:01:02;;;;;;;14.00;3.03;;;;;;;12.42;64.92;99747.47;5165264;28;20279;-50
2022/09/27 01:03:44;;;;;;;12.95;3.17;;;;;;;12.43;65.00;99749.09;5164268;28;20033;-48
2022/09/27 01:06:18;;;;;;;18.13;3.22;;;;;;;12.46;64.95;99753.22;5166213;28;20045;-48
2022/09/27 01:08:50;;;;;;;14.25;2.47;;;;;;;12.46;64.86;99743.44;5162991;28;20393;-48
2022/09/27 01:11:36;;;;;;;11.23;2.35;;;;;;;12.46;64.75;99753.22;5167341;28;20045;-48
2022/09/27 01:14:38;;;;;;;13.95;2.90;;;;;;;12.42;65.07;99747.47;5161181;28;20041;-53
2022/09/27 01:17:26;;;;;;;12.48;4.10;;;;;;;12.40;64.72;99757.44;5167099;28;20360;-47
2022/09/27 01:20:32;;;;;;;19.52;2.90;;;;;;;12.37;64.82;99752.50;5164044;28;20048;-35
2022/09/27 01:23:50;;;;;;;14.80;3.47;;;;;;;12.37;64.66;99747.22;5158697;28;20468;-49
2022/09/27 01:26:49;;;;;;;42.55;4.63;;;;;;;12.37;64.85;99756.97;5115034;28;20073;-48
2022/09/27 01:29:32;;;;;;;14.50;2.53;;;;;;;12.38;64.93;99766.56;5168523;28;20422;-50
2022/09/27 01:32:11;;;;;;;15.18;2.85;;;;;;;12.40;64.82;99769.84;5162221;28;20044;-43
2022/09/27 01:34:47;;;;;;;7.88;2.65;;;;;;;12.37;64.84;99765.75;5162166;28;20045;-48
2022/09/27 01:37:31;;;;;;;7.03;2.28;;;;;;;12.30;64.93;99754.28;5160637;28;20048;-48
2022/09/27 01:40:08;;;;;;;;;;;;;;;12.31;65.12;99753.25;5157483;28;20037;-47
2022/09/27 01:42:47;;;;;;;8.70;2.17;;;;;;;12.31;65.21;99755.09;5155219;28;20420;-48
2022/09/27 01:45:26;;;;;;;8.13;1.30;;;;;;;12.31;64.97;99760.38;5156872;28;20057;-51
2022/09/27 01:48:04;;;;;;;14.88;2.60;;;;;;;12.30;64.97;99761.41;5164228;28;20603;-38
2022/09/27 01:50:42;;;;;;;10.95;2.88;;;;;;;12.30;64.96;99761.41;5167204;28;20380;-48
2022/09/27 01:53:20;;;;;;;8.85;1.80;;;;;;;12.06;64.85;99741.38;5171858;28;20492;-48
2022/09/27 01:55:55;;;;;;;10.63;3.08;;;;;;;12.23;64.95;99753.34;5172732;28;20041;-44
2022/09/27 01:58:31;;;;;;;8.65;1.60;;;;;;;12.10;64.77;99740.00;5169268;28;20896;-49
2022/09/27 02:01:05;;;;;;;6.43;1.95;;;;;;;12.24;64.88;99749.72;5169433;28;20386;-47
2022/09/27 02:03:44;;;;;;;8.38;2.42;;;;;;;12.22;64.94;99762.31;5164428;28;20052;-49
2022/09/27 02:06:20;;;;;;;10.82;2.60;;;;;;;12.23;64.88;99759.50;5170065;28;20503;-48
2022/09/27 02:09:02;;;;;;;10.43;2.08;;;;;;;12.23;64.68;99753.34;5167313;28;20050;-46
2022/09/27 02:11:35;;;;;;;8.40;3.22;;;;;;;12.23;64.89;99759.50;5169714;28;20878;-51
2022/09/27 02:14:15;;;;;;;13.57;3.50;;;;;;;12.25;64.70;99745.25;5173197;28;20466;-50
2022/09/27 02:16:51;;;;;;;14.30;3.17;;;;;;;12.28;64.59;99742.22;5169945;28;20052;-45
2022/09/27 02:19:38;;;;;;;6.05;2.65;;;;;;;12.24;64.52;99731.19;5166691;28;20381;-47
2022/09/27 02:22:22;;;;;;;7.80;2.03;;;;;;;12.29;64.44;99742.03;5171790;28;20071;-50
2022/09/27 02:24:58;;;;;;;7.22;2.10;;;;;;;12.27;64.46;99748.53;5171879;28;20041;-44
2022/09/27 02:27:36;;;;;;;10.02;2.50;;;;;;;12.26;64.42;99739.75;5162256;28;20048;-49
2022/09/27 02:30:12;;;;;;;3.72;1.92;;;;;;;12.26;64.42;99737.09;5173955;28;20517;-49
2022/09/27 02:32:45;;;;;;;9.43;1.90;;;;;;;12.29;64.25;99742.03;5169843;28;20611;-52
2022/09/27 02:35:22;;;;;;;9.18;2.17;;;;;;;12.29;64.41;99739.38;5167179;28;20067;-49
2022/09/27 02:37:55;;;;;;;11.45;2.60;;;;;;;11.99;64.30;99686.56;5174116;28;20421;-43
2022/09/27 02:40:32;;;;;;;;;;;;;;;12.26;64.38;99731.81;5169963;28;20053;-50
2022/09/27 02:43:06;;;;;;;8.13;1.90;;;;;;;12.15;64.35;99719.09;5167924;28;19920;-47
2022/09/27 02:45:53;;;;;;;8.93;2.33;;;;;;;12.22;64.31;99735.84;5170019;28;20048;-48
2022/09/27 02:48:32;;;;;;;13.60;3.42;;;;;;;12.22;64.27;99743.78;5169026;28;20046;-49
2022/09/27 02:51:33;;;;;;;7.43;1.80;;;;;;;12.23;64.23;99742.78;5168688;28;20682;-48
2022/09/27 02:54:18;;;;;;;9.25;2.05;;;;;;;12.21;64.21;99748.28;5171828;28;20460;-51
2022/09/27 02:57:04;;;;;;;4.78;2.42;;;;;;;12.18;64.29;99735.41;5171670;28;20048;-47
2022/09/27 02:59:48;;;;;;;9.90;2.15;;;;;;;12.12;64.42;99740.63;5172639;28;20041;-48
2022/09/27 03:02:31;;;;;;;7.82;2.47;;;;;;;12.08;64.28;99744.63;5170426;28;20374;-48
2022/09/27 03:05:09;;;;;;;9.20;1.95;;;;;;;12.00;64.30;99735.81;5164233;28;20044;-48
2022/09/27 03:07:43;;;;;;;7.40;2.13;;;;;;;11.98;64.39;99755.53;5166462;28;20040;-48
2022/09/27 03:10:18;;;;;;;10.05;2.42;;;;;;;11.93;64.46;99748.16;5174484;28;20048;-51
2022/09/27 03:12:51;;;;;;;6.43;1.63;;;;;;;11.88;64.59;99750.53;5163421;28;20135;-53
2022/09/27 03:15:23;;;;;;;10.88;3.22;;;;;;;11.87;64.58;99750.72;5166332;28;20393;-44
2022/09/27 03:17:55;;;;;;;11.88;2.03;;;;;;;11.83;64.73;99747.59;5166716;28;20045;-48
2022/09/27 03:20:28;;;;;;;11.82;1.90;;;;;;;11.81;64.80;99749.59;5169435;28;20033;-47
2022/09/27 03:23:02;;;;;;;7.43;2.03;;;;;;;11.74;64.77;99744.22;5166992;28;20401;-47
2022/09/27 03:25:34;;;;;;;5.32;1.75;;;;;;;11.72;64.83;99745.41;5170118;28;20071;-51
2022/09/27 03:28:07;;;;;;;8.57;3.05;;;;;;;11.69;64.76;99741.31;5170266;28;20484;-51
2022/09/27 03:30:40;;;;;;;7.97;1.80;;;;;;;11.67;64.80;99737.19;5172541;28;20132;-51
2022/09/27 03:33:13;;;;;;;6.90;1.50;;;;;;;11.64;64.81;99742.84;5167211;28;20457;-47
2022/09/27 03:35:45;;;;;;;12.07;1.85;;;;;;;11.64;64.66;99745.50;5171912;28;20119;-47
2022/09/27 03:38:19;;;;;;;2.70;1.50;;;;;;;11.65;64.89;99755.09;5166680;28;20067;-47
2022/09/27 03:40:51;;;;;;;6.68;2.42;;;;;;;11.69;64.79;99746.59;5169027;28;20355;-47
2022/09/27 03:43:24;;;;;;;11.55;1.75;;;;;;;11.71;64.82;99746.41;5165173;28;20399;-50
2022/09/27 03:45:56;;;;;;;13.00;2.22;;;;;;;11.72;64.79;99750.69;5169228;28;20056;-48
2022/09/27 03:48:29;;;;;;;5.53;1.40;;;;;;;11.74;64.87;99743.41;5169221;28;20450;-50
2022/09/27 03:51:03;;;;;;;7.25;2.58;;;;;;;11.70;64.65;99731.53;5166846;28;20426;-48
2022/09/27 03:53:37;;;;;;;8.25;1.58;;;;;;;11.73;64.72;99737.28;5164461;28;20485;-49
2022/09/27 03:56:09;;;;;;;9.57;1.80;;;;;;;11.71;64.72;99735.84;5169848;28;20045;-50
2022/09/27 03:58:41;;;;;;;8.48;1.75;;;;;;;11.69;64.78;99733.38;5169212;28;20055;-48
2022/09/27 04:01:14;;;;;;;4.87;1.67;;;;;;;11.68;64.53;99738.84;5162792;28;20072;-51
2022/09/27 04:03:46;;;;;;;9.18;3.15;;;;;;;11.65;64.57;99745.31;5166980;28;20295;-48
2022/09/27 04:06:18;;;;;;;10.30;2.63;;;;;;;11.63;64.77;99754.44;5169123;28;20460;-51
2022/09/27 04:08:52;;;;;;;4.10;2.28;;;;;;;11.63;64.68;99771.13;5168449;28;20279;-49
2022/09/27 04:11:25;;;;;;;10.57;1.85;;;;;;;11.63;64.89;99754.44;5163534;28;20056;-49
2022/09/27 04:13:57;;;;;;;6.25;1.58;;;;;;;11.63;64.80;99735.94;5167979;28;20496;-48
2022/09/27 04:16:31;;;;;;;4.80;1.58;;;;;;;11.63;64.76;99742.03;5166791;28;20049;-44
2022/09/27 04:19:03;;;;;;;4.55;2.35;;;;;;;11.65;64.76;99744.50;5170828;28;20528;-48
2022/09/27 04:21:35;;;;;;;4.03;1.43;;;;;;;11.62;64.62;99739.59;5169144;28;20037;-51
2022/09/27 04:24:10;;;;;;;4.70;1.50;;;;;;;11.64;64.62;99737.56;5167501;28;20283;-46
2022/09/27 04:26:42;;;;;;;3.30;1.65;;;;;;;11.63;64.80;99735.94;5166722;28;20053;-49
2022/09/27 04:29:15;;;;;;;1.73;1.20;;;;;;;11.61;64.36;99735.28;5169601;28;20480;-50
2022/09/27 04:31:48;;;;;;;5.45;1.48;;;;;;;11.59;64.46;99735.47;5161691;28;20049;-50
2022/09/27 04:36:25;;;;;;;3.35;2.03;;;;;;;11.52;64.49;99735.41;5164302;28;20053;-48
2022/09/27 04:37:12;;;;;;;9.10;3.20;;;;;;;11.51;64.35;99728.44;5170066;28;20041;-41
2022/09/27 04:39:47;;;;;;;9.05;2.30;;;;;;;11.52;64.36;99729.25;5171125;28;20367;-48
2022/09/27 04:42:20;;;;;;;5.50;1.70;;;;;;;11.47;64.42;99713.97;5167715;28;20051;-50
2022/09/27 04:44:52;;;;;;;10.00;1.50;;;;;;;11.54;64.47;99727.28;5168798;28;20051;-48
2022/09/27 04:47:24;;;;;;;2.03;1.83;;;;;;;11.53;64.33;99726.44;5165480;28;20378;-48
2022/09/27 04:49:57;;;;;;;4.60;2.30;;;;;;;11.54;64.26;99727.28;5170191;28;20053;-48
2022/09/27 04:52:30;;;;;;;3.50;1.50;;;;;;;11.51;64.04;99723.16;5172168;28;20041;-48
2022/09/27 04:55:04;;;;;;;7.90;1.63;;;;;;;11.47;64.27;99719.25;5164560;28;20050;-49
2022/09/27 04:57:37;;;;;;;1.60;1.50;;;;;;;11.42;64.13;99724.25;5171479;28;20454;-51
2022/09/27 05:00:11;;;;;;;6.38;1.95;;;;;;;11.39;64.16;99719.34;5171714;28;20526;-48
2022/09/27 05:02:44;;;;;;;10.32;2.00;;;;;;;11.35;64.19;99727.81;5166244;28;20472;-47
2022/09/27 05:05:16;;;;;;;4.28;2.05;;;;;;;11.29;64.26;99726.72;5155049;28;20048;-47
2022/09/27 05:07:49;;;;;;;9.48;2.97;;;;;;;11.26;64.33;99740.28;5161548;28;20056;-47
2022/09/27 05:10:22;;;;;;;9.38;1.77;;;;;;;11.22;64.30;99739.03;5156423;28;20811;-47
2022/09/27 05:12:54;;;;;;;3.65;1.77;;;;;;;11.21;64.49;99742.66;5156139;28;20374;-44
2022/09/27 05:15:27;;;;;;;4.33;1.67;;;;;;;11.20;64.74;99735.72;5162809;28;20052;-48
2022/09/27 05:17:59;;;;;;;5.03;1.60;;;;;;;11.25;64.72;99733.38;5156650;28;20776;-38
2022/09/27 05:20:32;;;;;;;6.90;1.95;;;;;;;11.29;64.89;99745.22;5159467;28;20343;-47
2022/09/27 05:23:04;;;;;;;11.35;3.08;;;;;;;11.09;64.75;99705.31;5167054;28;20049;-47
2022/09/27 05:25:38;;;;;;;7.53;2.13;;;;;;;11.39;64.85;99742.31;5156447;28;20041;-46
2022/09/27 05:28:11;;;;;;;8.65;1.80;;;;;;;11.24;64.79;99729.91;5156296;28;20045;-50
2022/09/27 05:30:44;;;;;;;7.75;1.48;;;;;;;11.44;64.72;99746.06;5155096;28;20067;-44
2022/09/27 05:33:16;;;;;;;25.75;2.10;;;;;;;11.49;64.79;99756.91;5153598;28;20045;-49
2022/09/27 05:35:55;;;;;;;11.82;3.20;;;;;;;11.52;64.70;99759.19;5155687;28;20045;-47
2022/09/27 05:38:28;;;;;;;9.38;2.80;;;;;;;11.56;64.67;99757.00;5156468;28;20382;-52
2022/09/27 05:41:02;;;;;;;17.48;3.63;;;;;;;11.59;64.88;99753.19;5159336;28;20441;-49
2022/09/27 05:43:35;;;;;;;17.42;4.13;;;;;;;11.62;64.86;99756.28;5169327;28;20090;-47
2022/09/27 05:46:07;;;;;;;11.93;2.85;;;;;;;11.63;64.80;99757.91;5156870;28;20052;-48
2022/09/27 05:48:40;;;;;;;16.48;3.00;;;;;;;11.68;64.77;99762.66;5156326;28;20405;-49
2022/09/27 05:51:13;;;;;;;8.23;3.30;;;;;;;11.73;64.70;99768.19;5157167;28;20445;-48
2022/09/27 05:53:46;;;;;;;5.30;2.05;;;;;;;11.75;64.70;99752.97;5158836;28;20307;-49
2022/09/27 05:56:20;;;;;;;8.82;2.45;;;;;;;11.77;64.65;99753.63;5155504;28;20476;-49
2022/09/27 05:58:52;;;;;;;8.50;3.30;;;;;;;11.62;64.65;99734.31;5154929;28;20488;-49
2022/09/27 06:01:26;;;;;;;17.77;2.35;;;;;;;11.80;64.73;99773.56;5156055;28;20041;-48
2022/09/27 06:03:58;;;;;;;8.13;2.38;;;;;;;11.82;64.52;99775.03;5156188;28;20721;-48
2022/09/27 06:06:33;;;;;;;17.47;2.63;;;;;;;11.64;64.53;99745.50;5162509;28;20437;-47
2022/09/27 06:09:05;;;;;;;5.68;1.85;;;;;;;11.84;64.62;99770.38;5170700;28;20486;-47
2022/09/27 06:11:38;;;;;;;7.20;2.47;;;;;;;11.85;64.58;99773.88;5159875;28;20413;-46
2022/09/27 06:14:11;;;;;;;13.90;2.17;;;;;;;11.82;64.47;99759.16;5169083;28;20647;-50
2022/09/27 06:16:44;;;;;;;10.82;2.08;;;;;;;11.80;64.46;99745.31;5170581;28;20053;-45
2022/09/27 06:19:17;;;;;;;7.05;3.13;;;;;;;11.91;64.45;99760.72;5174407;28;20041;-47
2022/09/27 06:21:50;;;;;;;13.27;2.85;;;;;;;11.96;64.44;99762.84;5173726;28;20059;-47
2022/09/27 06:24:22;;;;;;;9.18;2.45;;;;;;;11.99;64.47;99768.56;5173424;28;20482;-46
2022/09/27 06:26:57;;;;;;;14.05;3.20;;;;;;;12.04;64.38;99765.38;5172803;28;20450;-48
2022/09/27 06:29:34;;;;;;;5.35;2.17;;;;;;;12.09;64.22;99772.75;5174687;28;20582;-50
2022/09/27 06:32:06;;;;;;;11.73;3.85;;;;;;;12.11;64.22;99778.66;5167676;28;20056;-45
2022/09/27 06:34:39;;;;;;;13.27;4.15;;;;;;;12.07;64.14;99772.13;5176564;28;20540;-47
2022/09/27 06:37:11;;;;;;;12.02;4.00;;;;;;;12.19;64.14;99789.16;5169240;28;20482;-48
2022/09/27 06:39:43;;;;;;;11.80;4.33;;;;;;;12.18;64.17;99783.06;5177813;28;20509;-49
2022/09/27 06:42:18;;;;;;;15.90;5.70;;;;;;;12.16;64.12;99777.09;5169102;28;20369;-47
2022/09/27 06:44:50;;;;;;;15.30;4.25;;;;;;;12.18;64.20;99771.66;5177445;28;20508;-46
2022/09/27 06:47:24;;;;;;;15.30;2.78;;;;;;;12.21;64.19;99771.28;5177539;28;20045;-46
2022/09/27 06:49:56;;;;;;;10.75;4.18;;;;;;;12.23;64.23;99770.09;5177972;28;20381;-45
2022/09/27 06:52:28;;;;;;;9.85;3.25;;;;;;;12.24;64.15;99765.59;5177629;28;20059;-45
2022/09/27 06:55:01;;;;;;;5.50;1.70;;;;;;;12.31;64.18;99760.38;5160074;28;20030;-47
2022/09/27 07:00:25;;;;;;;10.73;4.18;;;;;;;12.45;64.10;99773.56;5163803;28;20512;-48
2022/09/27 07:03:00;;;;;;;6.55;2.30;;;;;;;12.54;64.06;99774.28;5162786;28;20041;-54
2022/09/27 07:05:33;;;;;;;5.07;2.05;;;;;;;12.66;63.99;99774.56;5155001;28;20036;-48
2022/09/27 07:08:05;;;;;;;8.73;1.85;;;;;;;12.74;63.96;99777.13;5158658;28;20042;-47
2022/09/27 07:10:39;;;;;;;6.05;2.05;;;;;;;12.82;63.81;99782.28;5157048;28;20083;-50
2022/09/27 07:13:13;;;;;;;3.85;1.50;;;;;;;12.87;63.77;99787.81;5153891;28;20076;-47
2022/09/27 07:15:45;;;;;;;2.58;2.13;;;;;;;12.92;63.51;99790.72;5156036;28;20361;-47
2022/09/27 07:18:18;;;;;;;8.43;1.90;;;;;;;12.97;63.66;99794.63;5157694;28;20040;-50
2022/09/27 07:20:50;;;;;;;4.85;1.92;;;;;;;13.02;63.52;99795.69;5158061;28;20562;-47
2022/09/27 07:23:22;;;;;;;7.95;2.30;;;;;;;13.08;63.48;99794.13;5161558;28;20423;-46
2022/09/27 07:25:55;;;;;;;17.65;2.38;;;;;;;13.14;63.45;99793.34;5160105;28;20049;-47
2022/09/27 07:28:28;;;;;;;6.63;2.15;;;;;;;13.20;63.46;99818.28;5157403;28;20445;-52
2022/09/27 07:31:02;;;;;;;5.72;1.88;;;;;;;13.22;63.40;99832.97;5158232;28;20470;-46
2022/09/27 07:33:34;;;;;;;4.75;2.38;;;;;;;13.20;63.21;99834.19;5174065;28;20481;-45
2022/09/27 07:36:11;;;;;;;6.53;1.65;;;;;;;13.09;63.02;99836.34;5171723;28;20383;-46
2022/09/27 07:38:44;;;;;;;7.30;2.88;;;;;;;12.97;63.05;99834.38;5157987;28;20443;-49
2022/09/27 07:41:16;;;;;;;4.63;2.25;;;;;;;12.87;63.17;99829.41;5158750;28;20047;-47
2022/09/27 07:43:50;;;;;;;12.00;2.15;;;;;;;12.78;63.16;99827.88;5158479;28;20046;-47
2022/09/27 07:46:22;;;;;;;7.13;1.92;;;;;;;12.68;63.28;99820.25;5158033;28;20377;-44
2022/09/27 07:48:54;;;;;;;9.37;2.13;;;;;;;12.63;63.34;99826.09;5156048;28;20049;-45
2022/09/27 07:51:27;;;;;;;21.60;3.20;;;;;;;12.60;63.48;99817.72;5161375;28;20612;-45
2022/09/27 07:54:00;;;;;;;6.50;2.53;;;;;;;12.51;63.41;99809.09;5156329;28;20057;-48
2022/09/27 07:56:33;;;;;;;4.70;2.28;;;;;;;12.64;63.33;99819.00;5155559;28;20045;-48
2022/09/27 07:59:07;;;;;;;4.78;2.13;;;;;;;12.74;63.18;99818.69;5159439;28;20481;-47
2022/09/27 08:01:39;;;;;;;4.97;1.30;;;;;;;12.85;63.05;99820.81;5160378;28;20340;-48
2022/09/27 08:04:12;;;;;;;10.75;1.60;;;;;;;12.97;62.94;99821.13;5154851;28;20482;-51
2022/09/27 08:06:44;;;;;;;6.15;2.22;;;;;;;13.10;63.00;99823.91;5156481;28;20458;-48
2022/09/27 08:09:16;;;;;;;9.90;1.73;;;;;;;12.95;62.81;99794.03;5158164;28;20489;-48
2022/09/27 08:11:49;;;;;;;5.88;1.85;;;;;;;13.35;62.64;99837.63;5158459;28;20323;-49
2022/09/27 08:14:23;;;;;;;10.17;3.33;;;;;;;13.44;62.53;99851.53;5165804;28;20032;-47
2022/09/27 08:16:55;;;;;;;2.63;1.55;;;;;;;13.47;62.42;99867.06;5156463;28;20823;-47
2022/09/27 08:19:28;;;;;;;3.67;2.25;;;;;;;13.44;62.13;99856.84;5156611;28;20053;-49
2022/09/27 08:22:00;;;;;;;4.75;1.73;;;;;;;13.34;62.08;99850.03;5158460;28;20071;-49
2022/09/27 08:24:32;;;;;;;7.47;1.70;;;;;;;13.25;61.98;99851.19;5163578;28;20305;-48
2022/09/27 08:27:06;;;;;;;6.47;1.40;;;;;;;13.15;62.03;99853.31;5170229;28;20656;-47
2022/09/27 08:29:41;;;;;;;5.85;1.73;;;;;;;13.06;61.99;99849.16;5175821;28;20212;-48
2022/09/27 08:32:13;;;;;;;7.70;1.98;;;;;;;13.04;61.92;99851.19;5175293;28;20090;-46
2022/09/27 08:34:46;;;;;;;6.60;1.70;;;;;;;12.99;62.04;99854.41;5175112;28;20715;-49
2022/09/27 08:37:18;;;;;;;6.07;2.38;;;;;;;12.93;61.99;99855.97;5174130;28;20048;-50
2022/09/27 08:39:50;;;;;;;7.25;3.17;;;;;;;12.89;61.87;99860.00;5174919;28;20544;-47
2022/09/27 08:42:34;;;;;;;5.65;1.75;;;;;;;12.87;62.03;99850.59;5176054;28;20377;-50
2022/09/27 08:45:16;;;;;;;5.93;1.50;;;;;;;12.87;61.88;99856.72;5173484;28;20044;-46
2022/09/27 08:47:52;;;;;;;5.27;1.57;;;;;;;12.83;61.77;99855.47;5174986;28;20067;-48
2022/09/27 08:50:29;;;;;;;10.05;3.10;;;;;;;12.84;61.89;99854.44;5174888;28;20041;-47
2022/09/27 08:53:07;;;;;;;8.88;1.60;;;;;;;12.86;61.84;99860.38;5166016;28;20056;-48
2022/09/27 08:55:44;;;;;;;10.02;2.05;;;;;;;12.75;61.99;99842.31;5175612;28;20390;-50
2022/09/27 08:58:25;;;;;;;7.45;2.13;;;;;;;12.64;61.92;99829.59;5174127;28;20063;-47
2022/09/27 09:01:05;;;;;;;14.77;1.77;;;;;;;12.92;61.80;99872.06;5174772;28;20516;-47
2022/09/27 09:03:43;;;;;;;13.48;1.73;;;;;;;12.93;61.70;99879.81;5172871;28;20419;-49
2022/09/27 09:06:22;;;;;;;6.60;1.73;;;;;;;12.84;61.66;99853.63;5174477;28;20044;-47
2022/09/27 09:09:09;;;;;;;8.45;2.40;;;;;;;12.93;61.75;99877.16;5175209;28;20060;-50
2022/09/27 09:14:54;;;;;;;;;;;;;;;12.92;61.59;99891.44;5173829;28;20139;-47
2022/09/27 09:17:44;;;;;;;15.05;2.13;;;;;;;12.92;61.49;99891.44;5154251;28;19948;-50
2022/09/27 09:20:31;;;;;;;17.23;2.58;;;;;;;12.59;61.42;99845.22;5155921;28;20045;-46
2022/09/27 09:23:42;;;;;;;10.57;2.42;;;;;;;12.83;61.70;99897.84;5154060;28;20494;-47
2022/09/27 09:26:22;;;;;;;8.00;3.00;;;;;;;12.78;61.65;99888.81;5156814;28;20490;-49
2022/09/27 09:29:10;;;;;;;10.98;2.58;;;;;;;12.68;61.61;99883.84;5168432;28;20068;-48
2022/09/27 09:31:50;;;;;;;5.72;2.40;;;;;;;12.69;61.65;99888.13;5154687;28;20063;-51
2022/09/27 09:34:27;;;;;;;14.77;2.10;;;;;;;12.66;61.73;99875.25;5164574;28;20361;-49
2022/09/27 09:37:04;;;;;;;23.65;7.68;;;;;;;12.65;61.84;99873.59;5174639;28;20482;-48
2022/09/27 09:39:42;;;;;;;11.30;3.05;;;;;;;12.68;61.79;99867.94;5172870;28;20402;-48
2022/09/27 09:42:21;;;;;;;12.32;5.15;;;;;;;12.74;61.74;99863.72;5175321;28;20048;-45
2022/09/27 09:45:01;;;;;;;9.43;3.03;;;;;;;12.78;61.68;99863.16;5173672;28;20057;-44
2022/09/27 09:47:39;;;;;;;14.77;7.18;;;;;;;12.86;61.57;99852.44;5172034;28;20359;-47
2022/09/27 09:50:20;;;;;;;10.45;3.80;;;;;;;12.90;61.63;99848.41;5174879;28;20099;-48
2022/09/27 09:52:59;;;;;;;8.82;5.40;;;;;;;12.94;61.58;99856.78;5173450;28;20045;-49
2022/09/27 09:55:35;;;;;;;9.13;3.17;;;;;;;12.99;61.63;99846.44;5171783;28;20501;-46
2022/09/27 09:58:20;;;;;;;5.18;2.67;;;;;;;13.04;61.49;99840.59;5174777;28;20055;-45
2022/09/27 10:00:59;;;;;;;4.82;1.90;;;;;;;13.06;61.53;99838.53;5173993;28;20045;-49
2022/09/27 10:03:31;;;;;;;5.70;2.38;;;;;;;13.15;61.58;99842.72;5172677;28;20052;-47
2022/09/27 10:06:05;;;;;;;7.83;2.47;;;;;;;13.27;61.77;99854.47;5176795;28;20063;-50
2022/09/27 10:08:39;;;;;;;8.63;3.40;;;;;;;13.37;61.43;99854.13;5177186;28;20289;-46
2022/09/27 10:11:18;;;;;;;;;;;;;;;13.42;61.31;99850.94;5177726;28;20043;-47
2022/09/27 10:13:51;;;;;;;5.13;2.90;;;;;;;13.43;61.16;99861.31;5176895;28;20366;-49
2022/09/27 10:16:27;;;;;;;7.60;2.72;;;;;;;13.31;60.88;99834.50;5176919;28;20366;-49
2022/09/27 10:19:04;;;;;;;8.23;2.15;;;;;;;13.41;61.01;99852.75;5176450;28;20495;-48
2022/09/27 10:21:44;;;;;;;10.02;2.30;;;;;;;13.40;61.14;99845.78;5176578;28;20442;-47
2022/09/27 10:24:18;;;;;;;5.47;2.85;;;;;;;13.41;61.02;99846.59;5172811;28;20276;-47
2022/09/27 10:26:51;;;;;;;7.03;2.70;;;;;;;13.44;61.08;99854.19;5160349;28;20049;-48
2022/09/27 10:29:28;;;;;;;6.40;2.03;;;;;;;13.50;61.03;99866.69;5162686;28;20295;-45
2022/09/27 10:32:04;;;;;;;10.85;2.75;;;;;;;13.48;60.97;99858.13;5175231;28;20049;-43
2022/09/27 10:34:40;;;;;;;7.15;1.95;;;;;;;13.60;60.92;99868.00;5177990;28;20049;-48
2022/09/27 10:37:21;;;;;;;6.55;1.50;;;;;;;13.60;60.65;99845.97;5178465;28;20374;-48
2022/09/27 10:39:53;;;;;;;3.15;2.08;;;;;;;13.72;60.75;99847.06;5164042;28;20051;-46
2022/09/27 10:42:35;;;;;;;6.50;1.95;;;;;;;13.74;60.81;99850.31;5177500;28;20358;-46
2022/09/27 10:45:30;;;;;;;6.97;2.38;;;;;;;13.78;60.82;99843.63;5174369;28;20120;-45
2022/09/27 10:48:03;;;;;;;7.30;2.53;;;;;;;13.83;60.91;99843.03;5176587;28;20044;-52
2022/09/27 10:50:39;;;;;;;10.23;2.95;;;;;;;13.87;60.85;99840.78;5177366;28;20075;-49
2022/09/27 10:53:17;;;;;;;9.50;3.40;;;;;;;13.71;60.63;99810.09;5177570;28;20500;-48
2022/09/27 10:55:52;;;;;;;14.55;3.05;;;;;;;13.83;60.94;99841.19;5160057;28;20484;-50
2022/09/27 10:58:28;;;;;;;14.57;2.95;;;;;;;13.88;60.92;99864.50;5157178;28;20067;-49
2022/09/27 11:01:02;;;;;;;22.88;4.57;;;;;;;13.66;60.71;99860.25;5157260;28;20480;-45
2022/09/27 11:03:39;;;;;;;10.35;4.00;;;;;;;13.62;60.53;99857.16;5154736;28;20464;-45
2022/09/27 11:06:30;;;;;;;24.40;4.55;;;;;;;13.78;60.71;99869.31;5174410;28;20481;-46
2022/09/27 11:09:18;;;;;;;10.23;3.80;;;;;;;13.68;60.58;99879.47;5171385;28;20053;-45
2022/09/27 11:11:51;;;;;;;14.65;7.40;;;;;;;13.59;60.69;99876.13;5173743;28;20139;-46
2022/09/27 11:14:25;;;;;;;24.30;12.30;;;;;;;13.53;60.65;99877.75;5173503;28;20045;-45
2022/09/27 11:17:17;;;;;;;12.68;5.75;;;;;;;13.49;60.77;99883.63;5173458;28;20409;-45
2022/09/27 11:20:21;;;;;;;11.32;4.57;;;;;;;13.38;60.74;99896.38;5174903;28;20512;-45
2022/09/27 11:23:35;;;;;;;9.15;3.22;;;;;;;13.29;60.92;99892.22;5174398;28;20070;-45
2022/09/27 11:26:26;;;;;;;11.30;3.70;;;;;;;13.23;60.90;99874.41;5156051;28;20123;-46
2022/09/27 11:29:10;;;;;;;5.18;2.30;;;;;;;13.16;61.04;99857.59;5174420;28;20339;-46
2022/09/27 11:32:01;;;;;;;11.77;2.10;;;;;;;13.15;61.09;99848.00;5174100;28;20182;-47
2022/09/27 11:34:52;;;;;;;8.43;3.00;;;;;;;13.26;61.16;99858.13;5172739;28;20178;-49
2022/09/27 11:37:36;;;;;;;32.95;19.70;;;;;;;13.41;61.25;99863.38;5175336;28;20432;-47
2022/09/27 11:40:23;;;;;;;17.13;9.80;;;;;;;13.42;61.02;99832.34;5173100;28;20041;-48
2022/09/27 11:43:17;;;;;;;6.00;2.92;;;;;;;13.71;60.77;99853.34;5175704;28;20047;-50
2022/09/27 11:46:01;;;;;;;15.60;4.57;;;;;;;13.81;60.77;99848.53;5174897;28;20123;-48
2022/09/27 11:49:01;;;;;;;9.82;3.05;;;;;;;13.90;60.67;99835.09;5173890;28;20045;-49
2022/09/27 11:51:54;;;;;;;8.43;3.50;;;;;;;13.96;60.47;99844.94;5172501;28;20115;-48
2022/09/27 11:54:43;;;;;;;8.85;4.43;;;;;;;14.00;60.50;99844.34;5171946;28;20420;-47
2022/09/27 11:57:25;;;;;;;11.25;5.82;;;;;;;14.07;60.29;99847.03;5175145;28;20123;-46
2022/09/27 12:00:20;;;;;;;12.35;4.82;;;;;;;14.03;60.21;99845.81;5175390;28;20579;-47
2022/09/27 12:03:27;;;;;;;10.57;3.80;;;;;;;13.96;60.23;99840.44;5171267;28;20470;-48
2022/09/27 12:06:10;;;;;;;7.95;3.00;;;;;;;13.81;60.13;99837.09;5172257;28;20466;-46
2022/09/27 12:09:01;;;;;;;6.53;2.50;;;;;;;13.68;60.25;99847.63;5173946;28;20419;-47
2022/09/27 12:11:40;;;;;;;6.63;2.40;;;;;;;13.54;60.31;99867.94;5165554;28;20067;-49
2022/09/27 12:14:19;;;;;;;4.88;2.70;;;;;;;13.38;60.48;99864.56;5175729;28;20071;-50
2022/09/27 12:16:55;;;;;;;9.35;3.97;;;;;;;13.21;60.67;99863.16;5175935;28;20450;-46
2022/09/27 12:19:31;;;;;;;4.57;2.63;;;;;;;13.02;60.79;99850.56;5160706;28;20458;-45
2022/09/27 12:22:06;;;;;;;10.18;4.35;;;;;;;12.89;61.20;99861.84;5149758;28;20049;-46
2022/09/27 12:24:40;;;;;;;6.80;2.40;;;;;;;12.80;61.44;99869.09;5169943;28;20064;-46